Time;durP1;ratioP1;P1;durP2;ratioP2;P2;SDS_P1;SDS_P2;PMS_P1;PMS_P2;Temp;Humidity;BMP_temperature;BMP_pressure;BME280_temperature;BME280_humidity;BME280_pressure;Samples;Min_cycle;Max_cycle;Signal;HPM_P1;HPM_P2
2022/10/06 00:01:29;;;;;;;3.40;3.17;;;;;;;11.87;100.00;97601.72;4906034;29;20528;-68
2022/10/06 00:03:55;;;;;;;3.73;2.53;;;;;;;11.86;100.00;97597.44;4905569;29;20721;-69
2022/10/06 00:06:23;;;;;;;5.30;2.50;;;;;;;11.86;100.00;97601.88;4906318;29;20602;-66
2022/10/06 00:08:49;;;;;;;3.00;2.30;;;;;;;11.84;100.00;97595.84;4906530;29;20223;-67
2022/10/06 00:11:16;;;;;;;2.60;2.50;;;;;;;11.84;100.00;97602.00;4907276;29;20308;-68
2022/10/06 00:13:43;;;;;;;2.67;2.27;;;;;;;11.84;100.00;97596.69;4906523;29;20303;-68
2022/10/06 00:16:13;;;;;;;4.07;2.77;;;;;;;11.82;100.00;97597.78;4906250;29;20206;-68
2022/10/06 00:18:40;;;;;;;3.37;2.63;;;;;;;11.79;100.00;97609.50;4906979;29;20507;-68
2022/10/06 00:21:07;;;;;;;3.53;2.70;;;;;;;11.76;100.00;97609.72;4906988;29;20287;-66
2022/10/06 00:23:34;;;;;;;5.00;2.60;;;;;;;11.73;100.00;97610.00;4914908;29;20215;-68
2022/10/06 00:26:00;;;;;;;2.73;2.50;;;;;;;11.77;100.00;97611.41;4921181;29;20241;-69
2022/10/06 00:28:27;;;;;;;5.87;2.93;;;;;;;11.78;100.00;97617.56;4913731;29;20236;-69
2022/10/06 00:30:55;;;;;;;2.70;2.50;;;;;;;11.80;100.00;97616.47;4915360;29;20296;-68
2022/10/06 00:33:23;;;;;;;8.13;3.07;;;;;;;11.80;100.00;97626.22;4906284;29;20582;-68
2022/10/06 00:35:56;;;;;;;3.60;2.47;;;;;;;11.75;100.00;97621.31;4906305;29;20304;-66
2022/10/06 00:38:22;;;;;;;4.17;2.77;;;;;;;11.76;100.00;97628.28;4909855;29;20295;-69
2022/10/06 00:40:51;;;;;;;4.63;3.00;;;;;;;11.79;100.00;97624.56;4911463;29;20238;-68
2022/10/06 00:43:52;;;;;;;2.90;2.70;;;;;;;11.76;100.00;97624.81;4911977;29;20228;-67
2022/10/06 00:46:23;;;;;;;4.50;2.83;;;;;;;11.75;100.00;97631.91;4850584;29;20260;-70
2022/10/06 00:48:53;;;;;;;4.07;2.90;;;;;;;11.77;100.00;97622.03;4854438;29;20238;-69
2022/10/06 00:51:21;;;;;;;3.97;2.77;;;;;;;11.77;100.00;97626.47;4891819;29;20246;-68
2022/10/06 00:53:48;;;;;;;4.57;2.47;;;;;;;11.75;100.00;97626.63;4924318;29;20252;-68
2022/10/06 00:56:15;;;;;;;2.80;2.60;;;;;;;11.76;100.00;97630.13;4911177;29;20535;-68
2022/10/06 00:58:41;;;;;;;4.37;3.00;;;;;;;11.77;100.00;97635.28;4904972;29;20208;-68
2022/10/06 01:01:09;;;;;;;3.13;2.73;;;;;;;11.76;100.00;97624.81;4905857;29;20232;-67
2022/10/06 01:03:38;;;;;;;4.20;2.63;;;;;;;11.79;100.00;97630.69;4905981;29;20223;-67
2022/10/06 01:06:06;;;;;;;2.60;2.30;;;;;;;11.81;100.00;97625.25;4905625;29;20236;-68
2022/10/06 01:08:33;;;;;;;5.13;3.10;;;;;;;11.77;100.00;97635.28;4905698;29;20291;-67
2022/10/06 01:11:01;;;;;;;3.63;2.93;;;;;;;11.77;100.00;97627.31;4905561;29;20300;-67
2022/10/06 01:13:28;;;;;;;7.77;3.33;;;;;;;11.81;100.00;97627.91;4905801;29;20243;-68
2022/10/06 01:15:59;;;;;;;2.80;2.60;;;;;;;11.81;100.00;97635.84;4904774;29;20295;-68
2022/10/06 01:18:26;;;;;;;3.10;2.80;;;;;;;11.80;100.00;97632.38;4905625;29;20721;-68
2022/10/06 01:20:58;;;;;;;4.93;2.67;;;;;;;11.80;100.00;97636.81;4905633;29;20235;-68
2022/10/06 01:23:30;;;;;;;6.13;3.10;;;;;;;11.81;100.00;97635.84;4905658;29;20206;-68
2022/10/06 01:25:57;;;;;;;6.27;3.10;;;;;;;11.75;100.00;97636.38;4905287;29;20359;-67
2022/10/06 01:28:24;;;;;;;3.67;3.37;;;;;;;11.79;100.00;97635.16;4905697;29;20307;-68
2022/10/06 01:30:53;;;;;;;4.63;3.10;;;;;;;11.79;100.00;97638.66;4905054;29;20295;-68
2022/10/06 01:33:20;;;;;;;4.40;2.80;;;;;;;11.79;100.00;97643.97;4904987;29;20223;-66
2022/10/06 01:35:49;;;;;;;4.83;3.20;;;;;;;11.77;100.00;97643.22;4905070;29;20299;-68
2022/10/06 01:38:16;;;;;;;3.63;3.37;;;;;;;11.76;100.00;97646.81;4905375;29;20287;-68
2022/10/06 01:40:44;;;;;;;3.50;2.80;;;;;;;11.74;100.00;97647.94;4905234;29;20220;-68
2022/10/06 01:43:11;;;;;;;3.17;2.80;;;;;;;11.76;100.00;97652.13;4905257;29;20215;-65
2022/10/06 01:45:38;;;;;;;3.07;2.77;;;;;;;11.77;100.00;97653.81;4904892;29;20242;-68
2022/10/06 01:48:05;;;;;;;3.20;2.93;;;;;;;11.75;100.00;97654.94;4904571;29;20550;-69
2022/10/06 01:50:31;;;;;;;3.20;2.90;;;;;;;11.78;100.00;97650.22;4904747;29;20950;-67
2022/10/06 01:52:58;;;;;;;3.33;3.03;;;;;;;11.77;100.00;97659.13;4904959;29;20629;-68
2022/10/06 01:55:25;;;;;;;3.20;3.00;;;;;;;11.75;100.00;97654.94;4908732;29;20294;-66
2022/10/06 01:57:53;;;;;;;3.77;2.80;;;;;;;11.76;100.00;97662.72;4908345;29;20296;-66
2022/10/06 02:00:20;;;;;;;5.33;3.60;;;;;;;11.71;100.00;97656.97;4908056;29;20725;-67
2022/10/06 02:02:47;;;;;;;3.90;3.07;;;;;;;11.75;100.00;97669.03;4907812;29;20564;-68
2022/10/06 02:05:14;;;;;;;5.93;3.10;;;;;;;11.77;100.00;97663.56;4907959;29;20242;-68
2022/10/06 02:07:41;;;;;;;4.77;3.23;;;;;;;11.81;100.00;97665.84;4908197;29;20287;-67
2022/10/06 02:10:08;;;;;;;5.87;3.80;;;;;;;11.83;100.00;97666.56;4908187;29;20201;-66
2022/10/06 02:12:35;;;;;;;5.20;3.57;;;;;;;11.81;100.00;97668.50;4907923;29;20307;-68
2022/10/06 02:15:05;;;;;;;5.77;3.00;;;;;;;11.80;100.00;97666.81;4908054;29;20546;-68
2022/10/06 02:17:31;;;;;;;4.57;3.53;;;;;;;11.86;100.00;97674.28;4908484;29;20214;-69
2022/10/06 02:19:58;;;;;;;4.20;3.60;;;;;;;11.88;100.00;97682.94;4907739;29;20304;-69
2022/10/06 02:22:25;;;;;;;5.53;3.60;;;;;;;11.89;100.00;97679.34;4907938;29;20299;-68
2022/10/06 02:24:51;;;;;;;3.60;3.17;;;;;;;11.88;100.00;97680.28;4908262;29;20288;-66
2022/10/06 02:27:19;;;;;;;10.43;4.17;;;;;;;11.91;100.00;97689.78;4907769;29;20311;-67
2022/10/06 02:29:48;;;;;;;4.40;3.80;;;;;;;11.90;100.00;97688.94;4907623;29;20239;-67
2022/10/06 02:32:16;;;;;;;6.17;3.80;;;;;;;11.83;100.00;97695.72;4907610;29;20327;-68
2022/10/06 02:34:42;;;;;;;5.43;3.43;;;;;;;11.80;100.00;97689.81;4907827;29;20290;-66
2022/10/06 02:37:09;;;;;;;5.90;3.70;;;;;;;11.79;100.00;97683.72;4907848;29;20293;-68
2022/10/06 02:39:36;;;;;;;4.40;4.00;;;;;;;11.75;100.00;97687.56;4907697;29;20226;-68
2022/10/06 02:42:03;;;;;;;3.83;3.50;;;;;;;11.73;100.00;97694.78;4907314;29;20623;-67
2022/10/06 02:44:30;;;;;;;4.00;3.60;;;;;;;11.69;100.00;97695.97;4912944;29;20222;-67
2022/10/06 02:46:57;;;;;;;4.03;3.63;;;;;;;11.66;100.00;97690.06;4930288;29;20188;-70
2022/10/06 02:49:25;;;;;;;3.73;3.27;;;;;;;11.74;100.00;97695.63;4916796;29;20287;-68
2022/10/06 02:51:52;;;;;;;3.73;3.37;;;;;;;11.73;100.00;97693.94;4916208;29;20236;-68
2022/10/06 02:54:18;;;;;;;3.60;3.40;;;;;;;11.71;100.00;97701.19;4894714;29;20660;-67
2022/10/06 02:56:45;;;;;;;3.20;3.00;;;;;;;11.71;100.00;97696.72;4907387;29;20338;-67
2022/10/06 02:59:12;;;;;;;4.87;3.40;;;;;;;11.68;100.00;97704.06;4907296;29;20623;-65
2022/10/06 03:01:39;;;;;;;5.47;3.20;;;;;;;11.66;100.00;97703.31;4907513;29;20204;-69
2022/10/06 03:04:06;;;;;;;3.90;3.13;;;;;;;11.67;100.00;97705.84;4906664;29;20279;-67
2022/10/06 03:06:34;;;;;;;3.53;3.27;;;;;;;11.73;100.00;97710.69;4907250;29;20264;-68
2022/10/06 03:09:02;;;;;;;3.40;3.20;;;;;;;11.75;100.00;97708.78;4911108;29;20279;-67
2022/10/06 03:11:30;;;;;;;4.67;3.40;;;;;;;11.74;100.00;97703.59;4908324;29;20200;-68
2022/10/06 03:13:58;;;;;;;4.93;3.90;;;;;;;11.74;100.00;97707.06;4907146;29;20334;-66
2022/10/06 03:16:26;;;;;;;3.90;3.57;;;;;;;11.70;100.00;97704.75;4909037;29;20251;-66
2022/10/06 03:18:54;;;;;;;4.13;3.40;;;;;;;11.71;100.00;97712.63;4910124;29;20296;-68
2022/10/06 03:21:22;;;;;;;3.87;3.57;;;;;;;11.71;100.00;97717.94;4906612;29;20316;-68
2022/10/06 03:23:52;;;;;;;4.33;3.90;;;;;;;11.65;100.00;97720.22;4906843;29;20291;-67
2022/10/06 03:26:21;;;;;;;5.43;3.50;;;;;;;11.63;100.00;97730.06;4906725;29;20208;-68
2022/10/06 03:28:48;;;;;;;6.50;3.87;;;;;;;11.64;100.00;97727.31;4907000;29;20220;-65
2022/10/06 03:31:16;;;;;;;4.23;3.83;;;;;;;11.60;100.00;97727.66;4907546;29;20268;-68
2022/10/06 03:33:43;;;;;;;5.83;4.73;;;;;;;11.62;100.00;97731.06;4907155;29;20234;-67
2022/10/06 03:36:11;;;;;;;4.60;4.10;;;;;;;11.61;100.00;97727.56;4907068;29;20338;-68
2022/10/06 03:38:38;;;;;;;8.93;4.37;;;;;;;11.63;100.00;97727.41;4906233;29;20843;-67
2022/10/06 03:41:08;;;;;;;5.43;4.43;;;;;;;11.65;100.00;97738.75;4906438;29;20307;-67
2022/10/06 03:43:36;;;;;;;5.70;4.13;;;;;;;11.58;100.00;97732.25;4906548;29;20211;-68
2022/10/06 03:46:04;;;;;;;4.47;3.70;;;;;;;11.53;100.00;97735.28;4906299;29;20254;-67
2022/10/06 03:48:32;;;;;;;4.40;4.00;;;;;;;11.55;100.00;97743.91;4906420;29;20250;-68
2022/10/06 03:51:00;;;;;;;6.00;3.80;;;;;;;11.52;100.00;97748.63;4906309;29;20215;-68
2022/10/06 03:53:28;;;;;;;6.47;3.70;;;;;;;11.50;100.00;97743.47;4905874;29;20241;-67
2022/10/06 03:56:02;;;;;;;4.30;3.87;;;;;;;11.47;100.00;97744.56;4906106;29;20689;-68
2022/10/06 03:58:31;;;;;;;4.30;3.70;;;;;;;11.53;100.00;97740.56;4920666;29;20242;-67
2022/10/06 04:00:59;;;;;;;4.00;3.60;;;;;;;11.49;100.00;97747.91;4923842;29;20199;-67
2022/10/06 04:03:26;;;;;;;3.87;3.57;;;;;;;11.52;100.00;97754.75;4906448;29;20204;-68
2022/10/06 04:05:54;;;;;;;4.07;3.63;;;;;;;11.49;100.00;97760.31;4905802;29;20308;-66
2022/10/06 04:08:20;;;;;;;3.87;3.57;;;;;;;11.44;100.00;97758.03;4906070;29;20286;-66
2022/10/06 04:10:47;;;;;;;6.17;3.77;;;;;;;11.45;100.00;97759.72;4905486;29;20243;-67
2022/10/06 04:13:16;;;;;;;3.80;3.50;;;;;;;11.47;100.00;97765.75;4906080;29;20236;-68
2022/10/06 04:15:44;;;;;;;4.10;3.70;;;;;;;11.47;100.00;97768.41;4905143;29;20204;-67
2022/10/06 04:18:11;;;;;;;5.03;4.53;;;;;;;11.49;100.00;97770.91;4905732;29;20231;-68
2022/10/06 04:20:37;;;;;;;4.83;3.87;;;;;;;11.55;100.00;97775.72;4905922;29;20216;-67
2022/10/06 04:23:05;;;;;;;4.37;3.97;;;;;;;11.62;100.00;97776.09;4905957;29;20273;-68
2022/10/06 04:25:32;;;;;;;4.23;3.90;;;;;;;11.60;100.00;97770.06;4906012;29;20215;-68
2022/10/06 04:27:58;;;;;;;4.20;3.80;;;;;;;11.53;100.00;97779.47;4905601;29;20307;-66
2022/10/06 04:30:25;;;;;;;11.00;4.30;;;;;;;11.47;100.00;97786.94;4905881;29;20788;-66
2022/10/06 04:32:54;;;;;;;3.63;3.33;;;;;;;11.48;100.00;97785.09;4905817;29;20264;-66
2022/10/06 04:35:22;;;;;;;3.93;3.57;;;;;;;11.48;100.00;97793.06;4906383;29;20215;-66
2022/10/06 04:37:48;;;;;;;4.27;3.70;;;;;;;11.49;100.00;97797.41;4906077;29;20211;-67
2022/10/06 04:40:16;;;;;;;3.80;3.50;;;;;;;11.49;100.00;97794.75;4905653;29;20303;-66
2022/10/06 04:42:44;;;;;;;3.80;3.50;;;;;;;11.57;100.00;97802.09;4905070;29;20582;-67
2022/10/06 04:45:11;;;;;;;4.10;3.70;;;;;;;11.57;100.00;97810.91;4905000;29;20650;-66
2022/10/06 04:47:37;;;;;;;4.27;3.90;;;;;;;11.52;100.00;97807.75;4905728;29;20302;-65
2022/10/06 04:50:06;;;;;;;4.53;3.10;;;;;;;11.48;100.00;97814.25;4906139;29;20606;-67
2022/10/06 04:52:33;;;;;;;4.63;3.87;;;;;;;11.48;100.00;97811.59;4905465;29;20299;-66
2022/10/06 04:54:59;;;;;;;4.13;3.37;;;;;;;11.53;100.00;97806.78;4905677;29;20236;-65
2022/10/06 04:57:26;;;;;;;4.40;4.00;;;;;;;11.57;100.00;97815.34;4906124;29;20235;-65
2022/10/06 05:02:37;;;;;;;4.87;3.70;;;;;;;11.55;100.00;97822.59;4904996;29;20211;-65
2022/10/06 05:05:06;;;;;;;6.83;3.73;;;;;;;11.57;100.00;97832.09;4905482;29;20211;-64
2022/10/06 05:07:33;;;;;;;6.93;3.90;;;;;;;11.63;100.00;97830.75;4914247;29;20191;-64
2022/10/06 05:10:00;;;;;;;4.40;3.83;;;;;;;11.72;100.00;97830.06;4906476;29;20308;-65
2022/10/06 05:12:29;;;;;;;6.60;4.03;;;;;;;11.66;100.00;97834.00;4918603;29;20243;-64
2022/10/06 05:14:56;;;;;;;5.03;3.70;;;;;;;11.67;100.00;97838.34;4912363;29;20222;-65
2022/10/06 05:17:23;;;;;;;3.73;3.43;;;;;;;11.69;100.00;97841.72;4912391;29;20275;-65
2022/10/06 05:19:50;;;;;;;5.00;4.03;;;;;;;11.68;100.00;97840.03;4909293;29;20263;-64
2022/10/06 05:22:18;;;;;;;3.87;3.57;;;;;;;11.79;100.00;97841.88;4905649;29;21026;-65
2022/10/06 05:24:44;;;;;;;4.73;4.10;;;;;;;11.68;100.00;97841.84;4905228;29;20239;-64
2022/10/06 05:27:11;;;;;;;4.47;4.07;;;;;;;11.75;100.00;97835.97;4905811;29;20228;-67
2022/10/06 05:29:38;;;;;;;6.20;3.90;;;;;;;11.71;100.00;97839.84;4908324;29;20215;-66
2022/10/06 05:32:04;;;;;;;5.77;4.27;;;;;;;11.68;100.00;97840.03;4908548;29;20310;-66
2022/10/06 05:34:31;;;;;;;5.47;4.90;;;;;;;11.64;100.00;97840.41;4909253;29;20238;-66
2022/10/06 05:36:58;;;;;;;4.30;3.97;;;;;;;11.58;100.00;97844.38;4908580;29;20247;-66
2022/10/06 05:39:26;;;;;;;4.53;4.13;;;;;;;11.59;100.00;97856.66;4908374;29;20232;-66
2022/10/06 05:41:53;;;;;;;4.53;4.00;;;;;;;11.63;100.00;97858.09;4907822;29;20300;-66
2022/10/06 05:44:19;;;;;;;4.83;4.43;;;;;;;11.72;100.00;97867.19;4891962;29;20279;-66
2022/10/06 05:46:46;;;;;;;5.63;4.30;;;;;;;11.74;100.00;97865.25;4908432;29;20284;-66
2022/10/06 05:49:12;;;;;;;7.43;4.20;;;;;;;11.77;100.00;97868.50;4908296;29;20254;-66
2022/10/06 05:51:39;;;;;;;5.83;4.67;;;;;;;11.75;100.00;97864.28;4908519;29;20291;-65
2022/10/06 05:54:06;;;;;;;7.67;4.87;;;;;;;11.71;100.00;97861.03;4908855;29;20462;-67
2022/10/06 05:56:35;;;;;;;8.80;5.03;;;;;;;11.74;100.00;97871.38;4908329;29;20204;-67
2022/10/06 05:59:02;;;;;;;6.40;5.67;;;;;;;11.76;100.00;97868.63;4908246;29;20717;-66
2022/10/06 06:01:30;;;;;;;7.77;4.70;;;;;;;11.79;100.00;97869.22;4909090;29;20251;-66
2022/10/06 06:03:59;;;;;;;5.10;4.57;;;;;;;11.82;100.00;97874.28;4908394;29;20295;-64
2022/10/06 06:06:27;;;;;;;5.83;4.47;;;;;;;11.86;100.00;97881.03;4908297;29;20205;-66
2022/10/06 06:08:55;;;;;;;5.27;4.43;;;;;;;11.87;100.00;97882.69;4892029;29;20622;-66
2022/10/06 06:11:25;;;;;;;5.00;4.50;;;;;;;11.89;100.00;97879.94;4908071;29;20208;-67
2022/10/06 06:13:55;;;;;;;4.87;4.37;;;;;;;11.89;100.00;97885.25;4908174;29;20252;-66
2022/10/06 06:16:21;;;;;;;6.13;4.70;;;;;;;11.93;100.00;97881.38;4908252;29;20216;-66
2022/10/06 06:18:48;;;;;;;5.90;5.40;;;;;;;11.91;100.00;97878.84;4907981;29;20251;-66
2022/10/06 06:21:15;;;;;;;11.03;6.73;;;;;;;11.94;100.00;97883.91;4907760;29;20292;-66
2022/10/06 06:23:45;;;;;;;6.23;5.63;;;;;;;11.96;100.00;97882.00;4907813;29;20292;-67
2022/10/06 06:26:13;;;;;;;5.37;4.53;;;;;;;12.04;100.00;97880.53;4911329;29;20208;-67
2022/10/06 06:28:40;;;;;;;5.13;4.60;;;;;;;12.08;100.00;97884.63;4915231;29;20238;-67
2022/10/06 06:31:09;;;;;;;4.97;4.47;;;;;;;12.17;100.00;97891.84;4915347;29;20246;-67
2022/10/06 06:33:37;;;;;;;7.67;5.27;;;;;;;12.27;100.00;97884.84;4914597;29;20231;-66
2022/10/06 06:36:12;;;;;;;9.57;7.53;;;;;;;12.38;100.00;97890.13;4914382;29;20299;-67
2022/10/06 06:38:39;;;;;;;14.30;10.23;;;;;;;12.48;100.00;97883.09;4913559;29;20294;-66
2022/10/06 06:41:13;;;;;;;9.80;7.97;;;;;;;12.56;100.00;97885.97;4911913;29;20224;-67
2022/10/06 06:43:40;;;;;;;6.10;5.50;;;;;;;12.60;100.00;97887.41;4913825;29;20263;-67
2022/10/06 06:46:08;;;;;;;5.63;5.20;;;;;;;12.68;100.00;97887.63;4914602;29;20232;-67
2022/10/06 06:48:36;;;;;;;6.43;5.43;;;;;;;12.77;100.00;97894.84;4913678;29;20235;-66
2022/10/06 06:51:03;;;;;;;5.70;5.20;;;;;;;12.89;100.00;97896.47;4914155;29;20209;-66
2022/10/06 06:53:30;;;;;;;7.50;5.47;;;;;;;12.97;100.00;97906.47;4914287;29;20346;-67
2022/10/06 06:55:57;;;;;;;6.37;5.37;;;;;;;13.06;100.00;97907.53;4914730;29;20255;-67
2022/10/06 06:58:24;;;;;;;9.60;5.57;;;;;;;13.13;100.00;97906.06;4918200;29;20234;-66
2022/10/06 07:00:51;;;;;;;5.90;5.40;;;;;;;13.20;100.00;97902.78;4923724;29;20231;-66
2022/10/06 07:03:20;;;;;;;5.33;4.83;;;;;;;13.30;100.00;97910.81;4922702;29;20212;-66
2022/10/06 07:05:47;;;;;;;7.63;5.50;;;;;;;13.35;100.00;97908.63;4914100;29;20231;-66
2022/10/06 07:08:15;;;;;;;7.53;5.23;;;;;;;13.42;100.00;97907.13;4916543;29;20239;-66
2022/10/06 07:10:43;;;;;;;5.30;4.90;;;;;;;13.51;100.00;97914.31;4914377;29;20211;-65
2022/10/06 07:13:14;;;;;;;5.57;4.93;;;;;;;13.57;100.00;97915.63;4907672;29;20303;-66
2022/10/06 07:26:38;;;;;;;5.10;4.60;;;;;;;14.12;100.00;97912.53;4906836;29;20298;-65
2022/10/06 07:29:05;;;;;;;7.37;4.53;;;;;;;14.28;100.00;97922.66;4906434;29;20240;-67
2022/10/06 07:31:33;;;;;;;6.10;4.43;;;;;;;14.44;100.00;97923.03;4907296;29;20291;-67
2022/10/06 07:34:02;;;;;;;6.77;4.00;;;;;;;14.58;100.00;97920.00;4906663;29;20235;-68
2022/10/06 07:36:29;;;;;;;4.33;4.03;;;;;;;14.69;100.00;97924.38;4906016;29;20208;-68
2022/10/06 07:38:56;;;;;;;4.10;3.70;;;;;;;14.79;100.00;97927.88;4906021;29;20223;-68
2022/10/06 07:41:23;;;;;;;4.13;3.47;;;;;;;14.88;100.00;97922.56;4906528;29;20215;-66
2022/10/06 07:43:52;;;;;;;3.60;3.40;;;;;;;14.97;100.00;97931.56;4906760;29;20234;-67
2022/10/06 07:46:19;;;;;;;4.17;3.07;;;;;;;15.06;100.00;97925.38;4906090;29;20243;-66
2022/10/06 07:48:47;;;;;;;3.90;3.50;;;;;;;15.14;100.00;97928.19;4906682;29;20254;-66
2022/10/06 07:51:16;;;;;;;4.90;3.73;;;;;;;15.21;100.00;97923.13;4905683;29;20200;-67
2022/10/06 07:53:45;;;;;;;5.70;3.60;;;;;;;15.31;100.00;97934.63;4906305;29;20363;-66
2022/10/06 07:56:14;;;;;;;3.40;3.10;;;;;;;15.39;100.00;97929.44;4906342;29;20211;-67
2022/10/06 07:58:43;;;;;;;3.63;3.33;;;;;;;15.47;100.00;97934.91;4905853;29;21458;-67
2022/10/06 08:01:11;;;;;;;5.75;3.20;;;;;;;15.52;100.00;97932.69;4906067;29;20216;-67
2022/10/06 08:03:41;;;;;;;3.75;3.30;;;;;;;15.60;100.00;97940.81;4906465;29;20220;-68
2022/10/06 08:06:14;;;;;;;4.47;2.85;;;;;;;15.64;100.00;97936.88;4906052;29;20253;-66
2022/10/06 08:08:43;;;;;;;4.85;2.90;;;;;;;15.72;100.00;97938.84;4905971;29;20208;-67
2022/10/06 08:11:11;;;;;;;2.85;2.65;;;;;;;15.85;100.00;97939.38;4906002;29;20290;-67
2022/10/06 08:13:39;;;;;;;3.25;2.85;;;;;;;15.96;100.00;97941.03;4906202;29;20283;-68
2022/10/06 08:16:07;;;;;;;3.28;2.97;;;;;;;16.06;100.00;97931.16;4905857;29;20224;-68
2022/10/06 08:18:34;;;;;;;2.72;2.50;;;;;;;16.15;100.00;97930.28;4906478;29;20316;-67
2022/10/06 08:21:01;;;;;;;5.75;3.30;;;;;;;16.19;100.00;97932.50;4906320;29;20248;-66
2022/10/06 08:23:27;;;;;;;3.42;2.92;;;;;;;16.25;100.00;97931.09;4906199;29;20408;-67
2022/10/06 08:25:56;;;;;;;3.80;3.10;;;;;;;16.29;100.00;97924.47;4905772;29;20713;-65
2022/10/06 08:28:23;;;;;;;3.63;2.97;;;;;;;16.32;100.00;97927.69;4906083;29;20295;-65
2022/10/06 08:30:51;;;;;;;4.05;2.95;;;;;;;16.30;100.00;97924.31;4906132;29;20232;-67
2022/10/06 08:33:18;;;;;;;3.45;3.15;;;;;;;16.29;100.00;97927.16;4906244;29;20299;-67
2022/10/06 08:35:44;;;;;;;2.80;2.45;;;;;;;16.32;100.00;97922.34;4905861;29;20272;-65
2022/10/06 08:38:13;;;;;;;3.67;2.80;;;;;;;16.34;100.00;97924.84;4905718;29;20209;-67
2022/10/06 08:40:42;;;;;;;4.93;3.13;;;;;;;16.37;100.00;97929.91;4905428;29;20207;-67
2022/10/06 08:43:16;;;;;;;3.45;3.15;;;;;;;16.42;100.00;97927.63;4905866;29;20294;-67
2022/10/06 08:45:44;;;;;;;3.85;3.50;;;;;;;16.52;100.00;97927.59;4905546;29;21409;-67
2022/10/06 08:48:13;;;;;;;5.07;3.45;;;;;;;16.55;100.00;97930.78;4905246;29;20247;-65
2022/10/06 08:50:51;;;;;;;3.75;3.33;;;;;;;16.61;100.00;97935.59;4905538;29;20247;-66
2022/10/06 08:53:26;;;;;;;4.55;3.35;;;;;;;16.72;100.00;97934.56;4904568;29;20231;-65
2022/10/06 08:55:56;;;;;;;4.20;3.10;;;;;;;16.81;100.00;97929.13;4905692;29;20307;-66
2022/10/06 08:58:30;;;;;;;6.32;3.92;;;;;;;16.97;100.00;97930.31;4906120;29;20298;-66
2022/10/06 09:01:01;;;;;;;6.05;4.10;;;;;;;17.09;100.00;97942.44;4905447;29;20204;-67
2022/10/06 09:03:29;;;;;;;5.38;4.00;;;;;;;17.20;100.00;97937.72;4908922;29;20274;-66
2022/10/06 09:06:03;;;;;;;3.80;3.47;;;;;;;17.35;99.66;97938.88;4909188;29;20239;-66
2022/10/06 09:08:39;;;;;;;4.53;4.05;;;;;;;17.51;96.63;97932.78;4909028;29;20287;-66
2022/10/06 09:11:15;;;;;;;6.80;4.40;;;;;;;17.73;96.83;97929.66;4909346;29;20299;-66
2022/10/06 09:13:52;;;;;;;5.53;4.40;;;;;;;17.97;96.99;97930.81;4909509;29;20283;-65
2022/10/06 09:16:27;;;;;;;7.18;4.45;;;;;;;18.09;95.46;97926.88;4909761;29;20230;-66
2022/10/06 09:18:57;;;;;;;5.80;4.30;;;;;;;18.29;92.33;97933.69;4909338;29;20295;-67
2022/10/06 09:21:29;;;;;;;8.07;4.50;;;;;;;18.39;89.32;97926.34;4909277;29;20211;-66
2022/10/06 09:24:02;;;;;;;6.03;4.38;;;;;;;18.50;88.63;97930.59;4909224;29;20207;-67
2022/10/06 09:26:31;;;;;;;4.47;4.07;;;;;;;18.67;88.42;97930.53;4909230;29;20811;-67
2022/10/06 09:28:59;;;;;;;5.47;4.03;;;;;;;18.90;87.07;97933.47;4909271;29;20740;-66
2022/10/06 09:31:27;;;;;;;6.28;3.92;;;;;;;19.15;87.01;97931.66;4908757;29;20236;-66
2022/10/06 09:33:55;;;;;;;8.87;4.50;;;;;;;19.43;88.13;97925.03;4909028;29;20287;-67
2022/10/06 09:36:22;;;;;;;5.90;4.97;;;;;;;19.66;86.40;97931.38;4892471;29;20204;-66
2022/10/06 09:38:53;;;;;;;6.47;4.50;;;;;;;19.86;85.08;97929.19;4909326;29;20204;-69
2022/10/06 09:41:22;;;;;;;4.32;3.90;;;;;;;20.19;86.47;97938.03;4908694;29;20199;-65
2022/10/06 09:43:59;;;;;;;8.25;4.88;;;;;;;20.29;81.66;97934.19;4909212;29;20222;-66
2022/10/06 09:46:31;;;;;;;4.38;3.55;;;;;;;20.27;75.48;97929.94;4908779;29;20320;-67
2022/10/06 09:49:07;;;;;;;3.67;2.65;;;;;;;20.38;72.88;97926.06;4908646;29;20300;-67
2022/10/06 09:51:35;;;;;;;3.50;3.10;;;;;;;20.39;72.17;97927.75;4910243;29;20629;-69
2022/10/06 09:54:13;;;;;;;3.47;2.97;;;;;;;20.63;74.29;97925.81;4928468;29;20621;-69
2022/10/06 09:56:40;;;;;;;3.38;2.83;;;;;;;20.81;73.70;97923.72;4931189;29;20260;-67
2022/10/06 09:59:18;;;;;;;5.13;3.75;;;;;;;20.61;74.04;97927.84;4923441;29;20610;-67
2022/10/06 10:01:51;;;;;;;3.58;3.28;;;;;;;20.99;74.27;97926.13;4909965;29;20291;-68
2022/10/06 10:04:22;;;;;;;7.15;3.90;;;;;;;21.17;73.60;97917.81;4908873;29;20640;-67
2022/10/06 10:06:49;;;;;;;6.15;4.38;;;;;;;21.28;73.99;97920.94;4909634;29;20232;-67
2022/10/06 10:09:24;;;;;;;4.80;3.53;;;;;;;21.28;72.92;97914.72;4908651;29;20280;-67
2022/10/06 10:12:30;;;;;;;5.80;4.20;;;;;;;21.45;72.10;97908.19;4909153;29;20603;-68
2022/10/06 10:15:25;;;;;;;4.43;3.45;;;;;;;21.71;73.17;97911.34;4908666;29;20223;-67
2022/10/06 10:17:53;;;;;;;4.38;3.10;;;;;;;21.73;71.05;97903.91;4910844;29;20303;-67
2022/10/06 10:20:26;;;;;;;4.50;3.30;;;;;;;21.75;69.40;97906.44;4912096;29;20258;-65
2022/10/06 10:22:54;;;;;;;3.10;2.80;;;;;;;21.68;67.81;97906.28;4912703;29;20201;-66
2022/10/06 10:25:33;;;;;;;3.80;3.10;;;;;;;21.94;70.22;97899.69;4912767;29;20239;-64
2022/10/06 10:28:05;;;;;;;3.15;2.60;;;;;;;21.85;68.00;97901.63;4914755;29;20208;-69
2022/10/06 10:30:38;;;;;;;3.35;2.78;;;;;;;21.99;68.86;97902.69;4909908;29;20278;-64
2022/10/06 10:33:10;;;;;;;5.50;2.97;;;;;;;22.15;69.29;97900.66;4909983;29;20240;-65
2022/10/06 10:35:41;;;;;;;6.10;3.15;;;;;;;22.05;67.83;97902.78;4908562;29;20216;-66
2022/10/06 10:38:13;;;;;;;3.17;2.95;;;;;;;21.84;65.43;97900.78;4908012;29;20487;-67
2022/10/06 10:40:42;;;;;;;5.53;3.78;;;;;;;21.99;67.10;97908.06;4908715;29;20287;-67
2022/10/06 10:43:29;;;;;;;4.40;4.00;;;;;;;22.10;68.58;97899.53;4908402;29;20218;-67
2022/10/06 10:46:01;;;;;;;3.80;3.10;;;;;;;22.21;68.44;97902.59;4908905;29;20236;-66
2022/10/06 10:48:30;;;;;;;4.03;3.13;;;;;;;22.31;69.40;97905.88;4908607;29;20275;-66
2022/10/06 10:51:04;;;;;;;4.22;3.00;;;;;;;22.14;68.14;97901.66;4892292;29;20286;-66
2022/10/06 10:53:39;;;;;;;5.32;3.38;;;;;;;22.31;68.21;97911.25;4908100;29;20294;-65
2022/10/06 10:56:07;;;;;;;3.67;3.30;;;;;;;22.18;67.04;97910.22;4908486;29;20216;-66
2022/10/06 10:58:35;;;;;;;7.40;3.40;;;;;;;22.29;69.64;97905.22;4908231;29;20642;-66
2022/10/06 11:01:10;;;;;;;3.05;2.63;;;;;;;22.32;68.93;97894.03;4907836;29;20239;-65
2022/10/06 11:03:37;;;;;;;4.53;3.28;;;;;;;22.33;68.97;97900.28;4908960;29;20573;-66
2022/10/06 11:06:29;;;;;;;4.78;2.92;;;;;;;22.29;68.14;97891.72;4908207;29;20288;-66
2022/10/06 11:08:59;;;;;;;4.47;3.20;;;;;;;22.46;68.90;97886.97;4887707;29;20204;-65
2022/10/06 11:11:38;;;;;;;4.43;3.08;;;;;;;22.49;68.15;97883.94;4907047;29;20654;-65
2022/10/06 11:14:09;;;;;;;3.20;2.90;;;;;;;22.56;67.83;97887.53;4907573;29;20303;-66
2022/10/06 11:16:40;;;;;;;4.30;2.90;;;;;;;22.60;68.56;97888.81;4907505;29;20319;-66
2022/10/06 11:19:22;;;;;;;3.00;2.80;;;;;;;22.57;67.49;97883.81;4907591;29;20247;-65
2022/10/06 11:21:53;;;;;;;4.63;3.50;;;;;;;22.54;67.14;97883.34;4907052;29;20284;-63
2022/10/06 11:24:26;;;;;;;4.70;2.63;;;;;;;22.44;67.41;97870.16;4907311;29;20212;-65
2022/10/06 11:27:09;;;;;;;5.25;3.20;;;;;;;22.45;67.89;97871.00;4905853;29;20621;-65
2022/10/06 11:29:45;;;;;;;4.53;2.70;;;;;;;22.53;67.21;97884.38;4904099;29;20229;-67
2022/10/06 11:32:21;;;;;;;3.28;2.60;;;;;;;22.52;67.88;97880.84;4907600;29;20306;-66
2022/10/06 11:34:49;;;;;;;3.38;3.08;;;;;;;22.69;67.75;97873.41;4907194;29;20734;-67
2022/10/06 11:37:22;;;;;;;4.22;3.00;;;;;;;22.62;67.57;97865.22;4906558;29;20296;-68
2022/10/06 11:39:54;;;;;;;5.88;3.20;;;;;;;22.49;67.94;97870.44;4907258;29;20279;-66
2022/10/06 11:42:29;;;;;;;5.28;3.33;;;;;;;22.59;67.43;97873.69;4906716;29;21093;-67
2022/10/06 11:44:59;;;;;;;3.53;3.22;;;;;;;22.63;68.31;97869.59;4906353;29;20576;-68
2022/10/06 11:47:44;;;;;;;3.65;2.97;;;;;;;22.59;68.21;97870.97;5095469;27;1281668;-68
2022/10/06 11:50:33;;;;;;;4.22;3.17;;;;;;;22.68;69.07;97867.16;5119066;28;20650;-68